Augusta Regional At Bush Field Augusta US
ICAO: KAGS
IATA: AGS
Category: Large
Scheduled Services: Yes

Elevation: 144 ft
TransAlt. 18000 ft.

Airport Communications:
APP/DEP:119.15
ATIS:132.75
CTAF:118.7
GND:121.9
TWR:118.7
UNICOM:122.95

KAGS Zoom In..

If you have problems with the map follow the link
https://www.worldairports.se/pages/airport.php?
ICAO=KAGS

Runways:

(A) RW 08 length 6002 ft width 75 ft
---- / hdg 82

(B) RW 17 length 8001 ft width 150 ft
ILS 111.75 / hdg 172

(C) RW 26 length 6002 ft width 75 ft
---- / hdg 262

(D) RW 35 length 8001 ft width 150 ft
ILS 110.50 / hdg 352

Location; KAGS
Day. 22 / Time. 15.53 Zulu
* Altimeter: 30.20
* Temperature: 19° c. 66.2°f.
* Wind from: 040° Speed 08 kn.
Dewpoint: 17° c.
Visibility: 3 Statute Miles.
Clouds: Overcast 500 ft.
Conditions: Mist.

KAGS 221553Z 04008KT 3SM BR OVC005 19/17 A3020 RMK AO2 SLP225 T01890172


Wind From 040°
Speed 08 kn.

 
 
jpsmedia.com for Web Design worldairports.se 2019   terms of use